Time;durP1;ratioP1;P1;durP2;ratioP2;P2;SDS_P1;SDS_P2;PMS_P1;PMS_P2;Temp;Humidity;BMP_temperature;BMP_pressure;BME280_temperature;BME280_humidity;BME280_pressure;Samples;Min_cycle;Max_cycle;Signal;HPM_P1;HPM_P2
2023/08/08 00:00:04;;;;;;;7.10;3.60;;;;;;;;;;5072456;28;20031;-70
2023/08/08 00:02:29;;;;;;;7.33;3.67;;;;;;;;;;5077445;28;20460;-71
2023/08/08 00:04:54;;;;;;;7.93;3.53;;;;;;;;;;5071592;28;20051;-71
2023/08/08 00:07:20;;;;;;;7.67;3.40;;;;;;;;;;5067136;28;20514;-70
2023/08/08 00:09:45;;;;;;;6.57;3.40;;;;;;;;;;5071929;28;20036;-70
2023/08/08 00:12:10;;;;;;;6.37;2.90;;;;;;;;;;5071590;28;20052;-70
2023/08/08 00:14:36;;;;;;;7.23;3.20;;;;;;;;;;5064203;28;20032;-70
2023/08/08 00:17:01;;;;;;;6.23;2.93;;;;;;;;;;5071728;28;20036;-71
2023/08/08 00:19:26;;;;;;;8.43;3.63;;;;;;;;;;5072171;28;20055;-69
2023/08/08 00:21:51;;;;;;;7.23;3.67;;;;;;;;;;5072137;28;20028;-71
2023/08/08 00:24:17;;;;;;;8.70;3.53;;;;;;;;;;5071961;28;20023;-70
2023/08/08 00:26:42;;;;;;;11.07;3.50;;;;;;;;;;5072219;28;20024;-70
2023/08/08 00:29:07;;;;;;;9.33;3.90;;;;;;;;;;5066109;28;20051;-70
2023/08/08 00:31:32;;;;;;;7.37;3.77;;;;;;;;;;5060554;28;20036;-71
2023/08/08 00:33:57;;;;;;;6.90;2.97;;;;;;;;;;5070484;28;20029;-70
2023/08/08 00:36:23;;;;;;;9.20;3.90;;;;;;;;;;5073078;28;20115;-70
2023/08/08 00:38:48;;;;;;;8.70;3.83;;;;;;;;;;5075632;28;20484;-66
2023/08/08 00:41:14;;;;;;;10.73;4.53;;;;;;;;;;5074723;28;20464;-66
2023/08/08 00:43:39;;;;;;;9.47;3.87;;;;;;;;;;5071859;28;20017;-65
2023/08/08 00:46:04;;;;;;;6.90;3.40;;;;;;;;;;5071368;28;20028;-64
2023/08/08 00:48:30;;;;;;;7.80;3.90;;;;;;;;;;5072030;28;20037;-66
2023/08/08 00:50:56;;;;;;;7.27;4.00;;;;;;;;;;5071500;28;20028;-65
2023/08/08 00:53:22;;;;;;;9.10;4.43;;;;;;;;;;5071331;28;20082;-65
2023/08/08 00:55:47;;;;;;;7.90;3.77;;;;;;;;;;5072277;28;20051;-67
2023/08/08 00:58:13;;;;;;;10.30;4.30;;;;;;;;;;5075769;28;20016;-70
2023/08/08 01:03:41;;;;;;;7.17;4.10;;;;;;;;;;5068545;23;20064;-67
2023/08/08 01:06:16;;;;;;;8.60;4.33;;;;;;;;;;5035972;28;20108;-66
2023/08/08 01:09:00;;;;;;;6.80;3.90;;;;;;;;;;5039424;28;20032;-66
2023/08/08 01:11:27;;;;;;;9.40;4.23;;;;;;;;;;5035520;28;20021;-65
2023/08/08 01:13:54;;;;;;;9.03;5.17;;;;;;;;;;5035753;28;20029;-66
2023/08/08 01:16:20;;;;;;;10.97;4.57;;;;;;;;;;5038959;28;20072;-65
2023/08/08 01:18:47;;;;;;;9.10;4.43;;;;;;;;;;5035214;28;20098;-65
2023/08/08 01:21:14;;;;;;;9.37;4.40;;;;;;;;;;5035363;28;20017;-64
2023/08/08 01:23:39;;;;;;;11.60;4.60;;;;;;;;;;5034858;28;20025;-65
2023/08/08 01:26:04;;;;;;;7.83;4.77;;;;;;;;;;5035639;28;20100;-66
2023/08/08 01:28:29;;;;;;;9.50;4.50;;;;;;;;;;5035206;28;20469;-66
2023/08/08 01:30:55;;;;;;;10.90;4.90;;;;;;;;;;5035495;28;20021;-65
2023/08/08 01:33:20;;;;;;;9.67;4.67;;;;;;;;;;5035418;28;20056;-66
2023/08/08 01:35:47;;;;;;;9.47;5.30;;;;;;;;;;5034950;28;20025;-64
2023/08/08 01:38:21;;;;;;;9.43;4.80;;;;;;;;;;5035301;28;20505;-63
2023/08/08 01:40:47;;;;;;;9.40;5.17;;;;;;;;;;5034444;28;20067;-66
2023/08/08 01:43:14;;;;;;;8.33;4.67;;;;;;;;;;5034529;28;20021;-66
2023/08/08 01:45:39;;;;;;;9.67;5.03;;;;;;;;;;5034181;28;20036;-65
2023/08/08 01:48:08;;;;;;;9.70;4.70;;;;;;;;;;5035984;28;20469;-65
2023/08/08 01:50:34;;;;;;;8.70;4.50;;;;;;;;;;5034792;28;20021;-65
2023/08/08 01:52:59;;;;;;;9.00;4.53;;;;;;;;;;5034332;28;20396;-68
2023/08/08 01:55:24;;;;;;;13.73;4.90;;;;;;;;;;5033795;28;20033;-66
2023/08/08 01:57:49;;;;;;;9.33;4.60;;;;;;;;;;5034022;28;20021;-66
2023/08/08 02:00:15;;;;;;;7.87;4.30;;;;;;;;;;5034355;28;20381;-66
2023/08/08 02:02:40;;;;;;;8.37;4.50;;;;;;;;;;5037866;28;20377;-65
2023/08/08 02:05:05;;;;;;;7.55;4.45;;;;;;;;;;5052609;28;20053;-64
2023/08/08 02:07:30;;;;;;;10.97;4.63;;;;;;;;;;5052494;28;20039;-65
2023/08/08 02:09:56;;;;;;;8.13;4.33;;;;;;;;;;5054283;28;20021;-64
2023/08/08 02:12:21;;;;;;;10.27;4.50;;;;;;;;;;5054105;28;20032;-66
2023/08/08 02:14:46;;;;;;;8.33;4.50;;;;;;;;;;5053506;28;20028;-66
2023/08/08 02:17:11;;;;;;;10.27;4.32;;;;;;;;;;5053423;28;20029;-67
2023/08/08 02:19:37;;;;;;;8.83;4.47;;;;;;;;;;5054356;28;20025;-68
2023/08/08 02:22:02;;;;;;;8.93;4.67;;;;;;;;;;5052447;28;20078;-68
2023/08/08 02:24:27;;;;;;;9.27;4.20;;;;;;;;;;5054406;28;20069;-68
2023/08/08 02:26:53;;;;;;;8.97;4.83;;;;;;;;;;5053733;28;20036;-68
2023/08/08 02:29:18;;;;;;;12.60;4.20;;;;;;;;;;5053633;28;20033;-67
2023/08/08 02:31:43;;;;;;;11.53;5.03;;;;;;;;;;5053535;28;20193;-68
2023/08/08 02:34:08;;;;;;;9.87;4.63;;;;;;;;;;5053171;28;20168;-67
2023/08/08 02:36:34;;;;;;;13.17;4.97;;;;;;;;;;5053107;28;20035;-68
2023/08/08 02:38:59;;;;;;;10.47;4.60;;;;;;;;;;5053406;28;20025;-67
2023/08/08 02:41:24;;;;;;;11.43;4.50;;;;;;;;;;5053440;28;20104;-67
2023/08/08 02:43:50;;;;;;;7.37;4.23;;;;;;;;;;5053780;28;20029;-67
2023/08/08 02:46:15;;;;;;;10.60;5.10;;;;;;;;;;5052456;28;20036;-68
2023/08/08 02:48:40;;;;;;;7.57;4.30;;;;;;;;;;5052997;28;20033;-67
2023/08/08 02:51:05;;;;;;;11.33;5.60;;;;;;;;;;5052713;28;20037;-67
2023/08/08 02:53:30;;;;;;;9.73;5.07;;;;;;;;;;5052682;28;20078;-68
2023/08/08 02:55:56;;;;;;;8.40;4.53;;;;;;;;;;5052726;28;20033;-67
2023/08/08 02:58:21;;;;;;;13.00;4.70;;;;;;;;;;5052940;28;20036;-68
2023/08/08 03:00:46;;;;;;;13.67;5.23;;;;;;;;;;5053243;28;20052;-67
2023/08/08 03:03:12;;;;;;;11.37;4.80;;;;;;;;;;5053808;28;20462;-67
2023/08/08 03:05:37;;;;;;;9.30;4.50;;;;;;;;;;5053507;28;20055;-68
2023/08/08 03:08:02;;;;;;;11.80;4.60;;;;;;;;;;5052101;28;20082;-68
2023/08/08 03:10:27;;;;;;;10.40;5.00;;;;;;;;;;5052903;28;20033;-67
2023/08/08 03:12:53;;;;;;;10.53;5.10;;;;;;;;;;5052341;28;20021;-67
2023/08/08 03:15:18;;;;;;;10.20;4.90;;;;;;;;;;5051557;28;20029;-68
2023/08/08 03:17:43;;;;;;;7.63;3.87;;;;;;;;;;5051405;28;20052;-67
2023/08/08 03:20:11;;;;;;;8.80;4.90;;;;;;;;;;5052602;28;20466;-68
2023/08/08 03:22:37;;;;;;;10.90;4.43;;;;;;;;;;5052090;28;20077;-67
2023/08/08 03:25:04;;;;;;;9.93;4.30;;;;;;;;;;5052273;28;20426;-68
2023/08/08 03:27:29;;;;;;;9.87;4.60;;;;;;;;;;5052490;28;20017;-68
2023/08/08 03:29:54;;;;;;;9.52;4.55;;;;;;;;;;5052472;28;20151;-68
2023/08/08 03:32:20;;;;;;;10.90;4.53;;;;;;;;;;5051343;28;20017;-68
2023/08/08 03:34:45;;;;;;;10.23;4.13;;;;;;;;;;5052366;28;20427;-67
2023/08/08 03:37:10;;;;;;;9.25;5.00;;;;;;;;;;5051609;28;20400;-68
2023/08/08 03:39:35;;;;;;;9.70;4.93;;;;;;;;;;5052850;28;20457;-68
2023/08/08 03:42:00;;;;;;;9.83;4.83;;;;;;;;;;5051849;28;20346;-68
2023/08/08 03:44:26;;;;;;;11.23;5.03;;;;;;;;;;5051896;28;20354;-68
2023/08/08 03:46:51;;;;;;;12.02;4.72;;;;;;;;;;5051721;28;20044;-68
2023/08/08 03:49:16;;;;;;;12.03;5.13;;;;;;;;;;5051498;28;20609;-68
2023/08/08 03:51:41;;;;;;;12.70;4.80;;;;;;;;;;5052015;28;20435;-68
2023/08/08 03:54:07;;;;;;;9.20;4.67;;;;;;;;;;5050352;28;20047;-67
2023/08/08 03:56:32;;;;;;;11.75;5.03;;;;;;;;;;5052107;28;20420;-68
2023/08/08 03:58:58;;;;;;;9.85;4.82;;;;;;;;;;5051697;28;20025;-68
2023/08/08 04:01:23;;;;;;;9.90;5.10;;;;;;;;;;5051705;28;20052;-68
2023/08/08 04:03:48;;;;;;;11.73;5.00;;;;;;;;;;5052464;28;20044;-68
2023/08/08 04:06:13;;;;;;;11.83;5.30;;;;;;;;;;5052200;28;20044;-68
2023/08/08 04:08:39;;;;;;;12.03;5.40;;;;;;;;;;5051415;28;20044;-68
2023/08/08 04:11:04;;;;;;;12.83;5.60;;;;;;;;;;5051593;28;20032;-68
2023/08/08 04:13:29;;;;;;;10.87;5.30;;;;;;;;;;5051676;28;20029;-68
2023/08/08 04:15:55;;;;;;;15.00;5.57;;;;;;;;;;5051881;28;20066;-67
2023/08/08 04:18:20;;;;;;;13.70;5.27;;;;;;;;;;5051557;28;20020;-68
2023/08/08 04:20:46;;;;;;;10.37;5.57;;;;;;;;;;5048540;28;20036;-68
2023/08/08 04:23:11;;;;;;;12.77;4.80;;;;;;;;;;5049284;28;20495;-68
2023/08/08 04:25:37;;;;;;;12.37;5.80;;;;;;;;;;5051194;28;20032;-68
2023/08/08 04:28:02;;;;;;;12.17;5.63;;;;;;;;;;5051631;28;20024;-68
2023/08/08 04:30:27;;;;;;;14.67;5.83;;;;;;;;;;5050141;28;20029;-68
2023/08/08 04:32:53;;;;;;;12.83;5.80;;;;;;;;;;5051684;28;20040;-68
2023/08/08 04:35:18;;;;;;;11.67;5.80;;;;;;;;;;5051669;28;20128;-68
2023/08/08 04:37:43;;;;;;;13.23;5.83;;;;;;;;;;5033111;28;20396;-68
2023/08/08 04:40:09;;;;;;;10.17;5.33;;;;;;;;;;5051410;28;20071;-68
2023/08/08 04:42:34;;;;;;;10.70;5.80;;;;;;;;;;5051070;28;20028;-68
2023/08/08 04:44:59;;;;;;;12.53;5.90;;;;;;;;;;5050948;28;20024;-67
2023/08/08 04:47:24;;;;;;;10.87;5.73;;;;;;;;;;5050984;28;20064;-67
2023/08/08 04:49:50;;;;;;;12.93;5.30;;;;;;;;;;5051809;28;20034;-67
2023/08/08 04:52:15;;;;;;;13.40;5.97;;;;;;;;;;5048891;28;20033;-68
2023/08/08 04:54:40;;;;;;;11.17;5.47;;;;;;;;;;5051333;28;20029;-67
2023/08/08 04:57:05;;;;;;;11.97;5.47;;;;;;;;;;5051350;28;20021;-67
2023/08/08 04:59:31;;;;;;;10.63;5.43;;;;;;;;;;5051735;28;20072;-67
2023/08/08 05:01:56;;;;;;;14.00;6.35;;;;;;;;;;5052109;28;20100;-67
2023/08/08 05:04:21;;;;;;;14.97;4.90;;;;;;;;;;5049592;28;20041;-67
2023/08/08 05:06:46;;;;;;;10.13;4.82;;;;;;;;;;5046714;28;20028;-67
2023/08/08 05:09:13;;;;;;;14.23;5.93;;;;;;;;;;5051633;28;20045;-67
2023/08/08 05:11:38;;;;;;;13.10;5.32;;;;;;;;;;5046855;28;20043;-67
2023/08/08 05:14:04;;;;;;;14.20;5.35;;;;;;;;;;5045008;28;20059;-67
2023/08/08 05:16:29;;;;;;;8.80;4.70;;;;;;;;;;5043117;28;20061;-67
2023/08/08 05:18:54;;;;;;;10.35;4.75;;;;;;;;;;5049924;28;20021;-65
2023/08/08 05:21:19;;;;;;;10.10;4.28;;;;;;;;;;5051430;28;20009;-64
2023/08/08 05:23:45;;;;;;;11.90;4.22;;;;;;;;;;5050926;28;20020;-65
2023/08/08 05:26:10;;;;;;;9.63;4.10;;;;;;;;;;5050138;28;20142;-66
2023/08/08 05:28:35;;;;;;;11.30;4.47;;;;;;;;;;5050003;28;20461;-66
2023/08/08 05:31:01;;;;;;;8.55;4.30;;;;;;;;;;5051414;28;20075;-67
2023/08/08 05:33:26;;;;;;;12.85;4.20;;;;;;;;;;5051172;28;20388;-67
2023/08/08 05:35:51;;;;;;;12.73;5.10;;;;;;;;;;5049316;28;20062;-67
2023/08/08 05:38:17;;;;;;;10.55;4.47;;;;;;;;;;5049490;28;20017;-67
2023/08/08 05:40:42;;;;;;;8.57;4.00;;;;;;;;;;5049503;28;20460;-67
2023/08/08 05:43:08;;;;;;;10.73;3.90;;;;;;;;;;5052115;28;20233;-67
2023/08/08 05:45:33;;;;;;;10.07;3.50;;;;;;;;;;5053644;28;20617;-68
2023/08/08 05:48:00;;;;;;;11.05;3.90;;;;;;;;;;5053730;28;20021;-66
2023/08/08 05:50:26;;;;;;;10.77;3.72;;;;;;;;;;5052848;28;20035;-66
2023/08/08 05:52:51;;;;;;;11.50;4.10;;;;;;;;;;5051545;28;20017;-66
2023/08/08 05:55:16;;;;;;;9.63;4.10;;;;;;;;;;5052875;28;20162;-65
2023/08/08 05:57:41;;;;;;;10.48;3.90;;;;;;;;;;5051729;28;20017;-65
2023/08/08 06:00:10;;;;;;;9.18;3.42;;;;;;;;;;5054899;28;20028;-65
2023/08/08 06:02:35;;;;;;;9.43;2.88;;;;;;;;;;5054957;28;20013;-65
2023/08/08 06:05:01;;;;;;;10.18;3.17;;;;;;;;;;5053855;28;20547;-65
2023/08/08 06:07:26;;;;;;;9.25;2.92;;;;;;;;;;5054600;28;20024;-65
2023/08/08 06:09:51;;;;;;;8.48;3.13;;;;;;;;;;5056183;28;20396;-64
2023/08/08 06:12:17;;;;;;;7.43;2.47;;;;;;;;;;5054546;28;20029;-66
2023/08/08 06:14:42;;;;;;;6.65;2.50;;;;;;;;;;5054621;28;20469;-66
2023/08/08 06:17:07;;;;;;;9.02;2.80;;;;;;;;;;5054223;28;20469;-66
2023/08/08 06:19:32;;;;;;;9.75;3.13;;;;;;;;;;5054517;28;20040;-66
2023/08/08 06:21:58;;;;;;;14.40;2.70;;;;;;;;;;5054357;28;20025;-66
2023/08/08 06:24:23;;;;;;;9.15;2.53;;;;;;;;;;5054604;28;20013;-66
2023/08/08 06:26:48;;;;;;;7.00;2.25;;;;;;;;;;5054316;28;20067;-67
2023/08/08 06:29:14;;;;;;;5.85;2.40;;;;;;;;;;5053968;28;20020;-66
2023/08/08 06:31:39;;;;;;;5.53;2.08;;;;;;;;;;5054372;28;20028;-67
2023/08/08 06:34:04;;;;;;;6.85;2.40;;;;;;;;;;5054020;28;20020;-67
2023/08/08 06:36:31;;;;;;;8.50;2.47;;;;;;;;;;5054036;28;20492;-67
2023/08/08 06:38:56;;;;;;;6.53;1.60;;;;;;;;;;5053873;28;20013;-67
2023/08/08 06:41:21;;;;;;;7.93;2.00;;;;;;;;;;5054269;28;20020;-67
2023/08/08 06:43:46;;;;;;;4.75;1.90;;;;;;;;;;5053969;28;20088;-67
2023/08/08 06:46:12;;;;;;;6.40;2.10;;;;;;;;;;5053976;28;20419;-65
2023/08/08 06:48:37;;;;;;;8.13;2.10;;;;;;;;;;5054069;28;20092;-67
2023/08/08 06:51:02;;;;;;;6.55;1.80;;;;;;;;;;5053728;28;20025;-66
2023/08/08 06:53:27;;;;;;;7.85;2.00;;;;;;;;;;5053032;28;20017;-66
2023/08/08 06:55:53;;;;;;;6.88;1.80;;;;;;;;;;5054588;28;20021;-63
2023/08/08 06:58:18;;;;;;;5.07;1.90;;;;;;;;;;5053972;28;20741;-60
2023/08/08 07:00:43;;;;;;;6.18;1.77;;;;;;;;;;5053643;28;20376;-62
2023/08/08 07:03:08;;;;;;;7.35;1.70;;;;;;;;;;5053498;28;20348;-60
2023/08/08 07:05:34;;;;;;;8.65;2.17;;;;;;;;;;5053283;28;20025;-63
2023/08/08 07:07:59;;;;;;;6.32;1.98;;;;;;;;;;5050180;28;20033;-64
2023/08/08 07:10:24;;;;;;;6.90;1.40;;;;;;;;;;5053606;28;20049;-65
2023/08/08 07:12:49;;;;;;;7.13;1.70;;;;;;;;;;5049324;28;20037;-66
2023/08/08 07:15:15;;;;;;;6.18;1.70;;;;;;;;;;5053087;28;20032;-66
2023/08/08 07:17:40;;;;;;;6.22;1.65;;;;;;;;;;5051839;28;20017;-66
2023/08/08 07:20:05;;;;;;;5.80;1.50;;;;;;;;;;5053132;28;20013;-67
2023/08/08 07:22:32;;;;;;;4.35;1.38;;;;;;;;;;5053279;28;20051;-65
2023/08/08 07:24:57;;;;;;;5.13;1.52;;;;;;;;;;5052966;28;20071;-66
2023/08/08 07:27:22;;;;;;;5.57;1.65;;;;;;;;;;5053331;28;20398;-66
2023/08/08 07:29:48;;;;;;;3.33;1.20;;;;;;;;;;5052924;28;20424;-67
2023/08/08 07:32:13;;;;;;;5.65;1.55;;;;;;;;;;5053124;28;20412;-66
2023/08/08 07:34:38;;;;;;;2.88;1.20;;;;;;;;;;5053063;28;20400;-67
2023/08/08 07:37:03;;;;;;;6.60;1.83;;;;;;;;;;5052823;28;20354;-67
2023/08/08 07:39:29;;;;;;;6.07;1.75;;;;;;;;;;5052498;28;20103;-66
2023/08/08 07:41:54;;;;;;;6.13;1.70;;;;;;;;;;5052970;28;20434;-66
2023/08/08 07:44:19;;;;;;;6.10;1.30;;;;;;;;;;5052669;28;20721;-66
2023/08/08 07:46:45;;;;;;;6.55;1.50;;;;;;;;;;5052832;28;20016;-66
2023/08/08 07:49:10;;;;;;;6.03;1.55;;;;;;;;;;5051066;28;20538;-66
2023/08/08 07:51:35;;;;;;;6.05;1.35;;;;;;;;;;5050329;28;20071;-66
2023/08/08 07:54:01;;;;;;;5.55;1.13;;;;;;;;;;5050437;28;20048;-66
2023/08/08 07:56:26;;;;;;;5.53;1.40;;;;;;;;;;5051876;28;20025;-65
2023/08/08 07:58:51;;;;;;;6.20;1.50;;;;;;;;;;5050627;28;20086;-65
2023/08/08 08:01:17;;;;;;;6.50;1.27;;;;;;;;;;5052273;28;20067;-65
2023/08/08 08:03:43;;;;;;;5.00;1.38;;;;;;;;;;5052070;28;20044;-65
2023/08/08 08:06:08;;;;;;;5.38;1.15;;;;;;;;;;5051748;28;20021;-64
2023/08/08 08:08:33;;;;;;;3.50;1.20;;;;;;;;;;5052367;28;20381;-64
2023/08/08 08:10:58;;;;;;;4.72;1.20;;;;;;;;;;5049744;28;20560;-63
2023/08/08 08:13:24;;;;;;;4.63;1.05;;;;;;;;;;5052435;28;20428;-64
2023/08/08 08:15:49;;;;;;;3.30;1.00;;;;;;;;;;5052226;28;20029;-64
2023/08/08 08:18:16;;;;;;;4.32;1.20;;;;;;;;;;5052187;28;20079;-64
2023/08/08 08:20:42;;;;;;;4.43;1.35;;;;;;;;;;5052129;28;20456;-63
2023/08/08 08:23:07;;;;;;;2.22;0.85;;;;;;;;;;5051972;28;20108;-63
2023/08/08 08:25:32;;;;;;;3.67;1.20;;;;;;;;;;5034005;28;20013;-63
2023/08/08 08:27:58;;;;;;;4.43;1.15;;;;;;;;;;5051872;28;20016;-58
2023/08/08 08:30:25;;;;;;;2.13;0.90;;;;;;;;;;5051826;28;20021;-58
2023/08/08 08:32:51;;;;;;;4.22;1.00;;;;;;;;;;5051758;28;20025;-58
2023/08/08 08:35:16;;;;;;;4.03;0.90;;;;;;;;;;5051650;28;20021;-59
2023/08/08 08:37:42;;;;;;;2.08;0.88;;;;;;;;;;5052069;28;20075;-59
2023/08/08 08:40:08;;;;;;;2.65;0.80;;;;;;;;;;5051691;28;20056;-59
2023/08/08 08:42:33;;;;;;;5.40;1.30;;;;;;;;;;5051884;28;20032;-60
2023/08/08 08:44:59;;;;;;;4.63;0.90;;;;;;;;;;5052034;28;20066;-60
2023/08/08 08:47:24;;;;;;;4.05;0.93;;;;;;;;;;5047771;28;20074;-59
2023/08/08 08:49:50;;;;;;;8.85;0.90;;;;;;;;;;5051881;28;20024;-62
2023/08/08 08:52:16;;;;;;;3.83;1.00;;;;;;;;;;5051525;28;20025;-60
2023/08/08 08:54:42;;;;;;;6.53;0.95;;;;;;;;;;5051916;28;20052;-60
2023/08/08 08:57:09;;;;;;;11.10;2.30;;;;;;;;;;5051710;28;20021;-59
2023/08/08 08:59:34;;;;;;;5.47;1.25;;;;;;;;;;5051513;28;20017;-59
2023/08/08 09:02:00;;;;;;;2.88;0.80;;;;;;;;;;5051883;28;20039;-60
2023/08/08 09:04:28;;;;;;;4.60;0.85;;;;;;;;;;5049492;28;20748;-60
2023/08/08 09:06:53;;;;;;;3.17;0.82;;;;;;;;;;5055703;28;20508;-60
2023/08/08 09:09:21;;;;;;;5.50;0.80;;;;;;;;;;5051474;28;20048;-58
2023/08/08 09:11:48;;;;;;;4.43;0.75;;;;;;;;;;5051523;28;20029;-60
2023/08/08 09:14:20;;;;;;;3.97;0.90;;;;;;;;;;5050325;28;20017;-61
2023/08/08 09:16:45;;;;;;;2.35;0.55;;;;;;;;;;5052071;28;20497;-60
2023/08/08 09:19:11;;;;;;;4.80;0.90;;;;;;;;;;5055584;28;20091;-58
2023/08/08 09:21:36;;;;;;;5.15;0.80;;;;;;;;;;5055681;28;20017;-58
2023/08/08 09:24:02;;;;;;;3.65;0.70;;;;;;;;;;5056157;28;20017;-60
2023/08/08 09:26:28;;;;;;;2.10;0.60;;;;;;;;;;5055027;28;20100;-61
2023/08/08 09:28:53;;;;;;;7.75;0.93;;;;;;;;;;5055155;28;20096;-61
2023/08/08 09:31:18;;;;;;;2.65;0.80;;;;;;;;;;5055075;28;20059;-61
2023/08/08 09:33:44;;;;;;;3.05;0.80;;;;;;;;;;5055276;28;20047;-60
2023/08/08 09:36:13;;;;;;;2.65;0.70;;;;;;;;;;5055269;28;20017;-61
2023/08/08 09:38:39;;;;;;;4.05;0.80;;;;;;;;;;5055443;28;20048;-60
2023/08/08 09:41:04;;;;;;;3.20;0.85;;;;;;;;;;5054776;28;20052;-60
2023/08/08 09:43:29;;;;;;;2.92;0.75;;;;;;;;;;5055200;28;20021;-60
2023/08/08 09:45:55;;;;;;;3.20;0.70;;;;;;;;;;5055194;28;20067;-60
2023/08/08 09:48:21;;;;;;;2.83;0.90;;;;;;;;;;5055175;28;20048;-61
2023/08/08 09:50:46;;;;;;;1.98;0.70;;;;;;;;;;5054851;28;20024;-61
2023/08/08 09:53:12;;;;;;;3.70;0.80;;;;;;;;;;5053546;28;20025;-61
2023/08/08 09:55:37;;;;;;;4.57;0.80;;;;;;;;;;5052352;28;20021;-61
2023/08/08 09:58:03;;;;;;;2.78;0.70;;;;;;;;;;5055841;28;20092;-60
2023/08/08 10:00:30;;;;;;;1.38;0.50;;;;;;;;;;5054838;28;20013;-60
2023/08/08 10:02:55;;;;;;;3.30;0.70;;;;;;;;;;5054528;28;20048;-62
2023/08/08 10:05:21;;;;;;;2.72;0.80;;;;;;;;;;5054748;28;20013;-60
2023/08/08 10:07:46;;;;;;;4.10;0.68;;;;;;;;;;5050534;28;20380;-62
2023/08/08 10:10:11;;;;;;;4.28;0.70;;;;;;;;;;5054412;28;20013;-60
2023/08/08 10:12:38;;;;;;;3.08;0.90;;;;;;;;;;5054358;28;20108;-61
2023/08/08 10:15:04;;;;;;;4.97;0.80;;;;;;;;;;5054532;28;20013;-60
2023/08/08 10:17:35;;;;;;;3.80;0.70;;;;;;;;;;5054350;28;20469;-59
2023/08/08 10:20:08;;;;;;;4.72;0.75;;;;;;;;;;5054176;28;20053;-61
2023/08/08 10:22:34;;;;;;;2.88;0.70;;;;;;;;;;5054224;28;20051;-62
2023/08/08 10:25:03;;;;;;;1.77;0.70;;;;;;;;;;5054447;28;20044;-63
2023/08/08 10:27:32;;;;;;;4.03;1.05;;;;;;;;;;5054100;28;20048;-63
2023/08/08 10:30:07;;;;;;;3.33;0.85;;;;;;;;;;5053260;28;20656;-63
2023/08/08 10:32:43;;;;;;;2.67;0.80;;;;;;;;;;5054220;28;20088;-63
2023/08/08 10:35:09;;;;;;;2.60;0.63;;;;;;;;;;5053934;28;20028;-63
2023/08/08 10:37:34;;;;;;;3.50;0.90;;;;;;;;;;5053923;28;20491;-63
2023/08/08 10:40:05;;;;;;;1.80;0.65;;;;;;;;;;5053739;28;20078;-63
2023/08/08 10:42:30;;;;;;;3.25;0.80;;;;;;;;;;5054110;28;20464;-63
2023/08/08 10:44:57;;;;;;;3.58;0.73;;;;;;;;;;5053603;28;20033;-63
2023/08/08 10:47:25;;;;;;;3.10;0.70;;;;;;;;;;5054106;28;20055;-62
2023/08/08 10:50:17;;;;;;;2.28;0.70;;;;;;;;;;5049908;28;20488;-67
2023/08/08 10:52:42;;;;;;;;;;;;;;;;;;5050857;28;20036;-66
2023/08/08 10:55:17;;;;;;;4.57;0.93;;;;;;;;;;5053662;28;19905;-67
2023/08/08 10:57:43;;;;;;;2.38;0.52;;;;;;;;;;5053512;28;20028;-67
2023/08/08 11:00:17;;;;;;;4.45;0.80;;;;;;;;;;5053561;28;20013;-67
2023/08/08 11:02:44;;;;;;;4.28;0.90;;;;;;;;;;5053778;28;20484;-66
2023/08/08 11:05:09;;;;;;;2.83;0.70;;;;;;;;;;5056433;28;20501;-66
2023/08/08 11:07:36;;;;;;;2.38;0.60;;;;;;;;;;5050640;28;20086;-67
2023/08/08 11:10:01;;;;;;;3.05;0.70;;;;;;;;;;5049083;28;20123;-66
2023/08/08 11:12:26;;;;;;;4.40;0.75;;;;;;;;;;5053041;28;20113;-66
2023/08/08 11:14:52;;;;;;;2.33;0.68;;;;;;;;;;5052598;28;20021;-67
2023/08/08 11:17:17;;;;;;;3.13;0.85;;;;;;;;;;5056546;28;20021;-67
2023/08/08 11:19:43;;;;;;;2.40;0.70;;;;;;;;;;5053371;28;20096;-67
2023/08/08 11:22:11;;;;;;;3.13;0.90;;;;;;;;;;5053301;28;20016;-66
2023/08/08 11:24:37;;;;;;;2.47;0.63;;;;;;;;;;5053407;28;20013;-67
2023/08/08 11:27:02;;;;;;;6.28;0.80;;;;;;;;;;5052848;28;20511;-67
2023/08/08 11:29:30;;;;;;;1.85;0.60;;;;;;;;;;5052859;28;20029;-67
2023/08/08 11:31:56;;;;;;;4.40;0.80;;;;;;;;;;5052825;28;20032;-66
2023/08/08 11:34:21;;;;;;;2.47;0.65;;;;;;;;;;5053159;28;20521;-67
2023/08/08 11:36:48;;;;;;;1.50;0.52;;;;;;;;;;5052548;28;20104;-67
2023/08/08 11:39:13;;;;;;;2.55;0.52;;;;;;;;;;5052982;28;20104;-67
2023/08/08 11:41:40;;;;;;;4.18;1.20;;;;;;;;;;5052833;28;20449;-67
2023/08/08 11:44:07;;;;;;;2.55;0.98;;;;;;;;;;5052877;28;20048;-66
2023/08/08 11:46:32;;;;;;;6.05;1.33;;;;;;;;;;5052537;28;20009;-66
2023/08/08 11:49:06;;;;;;;4.25;0.85;;;;;;;;;;5052547;28;20013;-66
2023/08/08 11:51:35;;;;;;;3.70;0.82;;;;;;;;;;5052307;28;20099;-66
2023/08/08 11:54:01;;;;;;;2.30;0.80;;;;;;;;;;5052399;28;20021;-66
2023/08/08 11:56:28;;;;;;;1.90;0.60;;;;;;;;;;5052698;28;20369;-68
2023/08/08 11:58:55;;;;;;;0.98;0.45;;;;;;;;;;5051086;28;20021;-68
2023/08/08 12:01:24;;;;;;;1.95;0.55;;;;;;;;;;5052501;28;20075;-68
2023/08/08 12:03:50;;;;;;;4.57;0.80;;;;;;;;;;5047548;28;20531;-67
2023/08/08 12:06:16;;;;;;;2.50;0.75;;;;;;;;;;5055217;28;20092;-68
2023/08/08 12:08:44;;;;;;;5.20;0.70;;;;;;;;;;5052075;28;20021;-67
2023/08/08 12:11:11;;;;;;;2.38;0.70;;;;;;;;;;5051211;28;20249;-67
2023/08/08 12:13:40;;;;;;;3.53;0.55;;;;;;;;;;5050592;28;20017;-68
2023/08/08 12:16:06;;;;;;;4.30;0.70;;;;;;;;;;5052018;28;20082;-68
2023/08/08 12:18:32;;;;;;;3.47;0.70;;;;;;;;;;5051817;28;20461;-67
2023/08/08 12:20:57;;;;;;;2.92;0.63;;;;;;;;;;5052082;28;20021;-68
2023/08/08 12:23:23;;;;;;;3.25;0.80;;;;;;;;;;5051971;28;20040;-67
2023/08/08 12:25:48;;;;;;;2.67;0.77;;;;;;;;;;5052285;28;20481;-68
2023/08/08 12:28:13;;;;;;;2.47;0.70;;;;;;;;;;5052196;28;20078;-67
2023/08/08 12:30:38;;;;;;;2.10;0.65;;;;;;;;;;5052289;28;20820;-68
2023/08/08 12:33:04;;;;;;;4.30;0.80;;;;;;;;;;5052074;28;20032;-68
2023/08/08 12:35:29;;;;;;;1.25;0.50;;;;;;;;;;5051815;28;20136;-69
2023/08/08 12:37:54;;;;;;;5.22;1.00;;;;;;;;;;5052401;28;20009;-68
2023/08/08 12:40:19;;;;;;;5.85;1.00;;;;;;;;;;5051772;28;20017;-68
2023/08/08 12:42:45;;;;;;;2.13;0.50;;;;;;;;;;5052077;28;20021;-68
2023/08/08 12:45:10;;;;;;;2.78;0.73;;;;;;;;;;5051850;28;20465;-67
2023/08/08 12:47:38;;;;;;;3.03;0.80;;;;;;;;;;5051894;28;20021;-68
2023/08/08 12:50:04;;;;;;;3.22;0.80;;;;;;;;;;5051541;28;20528;-67
2023/08/08 12:52:29;;;;;;;3.60;1.00;;;;;;;;;;5051123;28;20055;-68
2023/08/08 12:54:54;;;;;;;5.97;0.98;;;;;;;;;;5051589;28;20013;-68
2023/08/08 12:57:20;;;;;;;3.08;0.70;;;;;;;;;;5051759;28;20031;-69
2023/08/08 12:59:45;;;;;;;3.22;0.70;;;;;;;;;;5052034;28;20013;-68
2023/08/08 13:02:10;;;;;;;2.28;0.70;;;;;;;;;;5051727;28;20099;-68
2023/08/08 13:04:36;;;;;;;5.65;1.00;;;;;;;;;;5051350;28;20426;-68
2023/08/08 13:07:01;;;;;;;3.50;0.82;;;;;;;;;;5058638;28;20024;-68
2023/08/08 13:09:26;;;;;;;1.73;0.68;;;;;;;;;;5050088;28;20017;-69
2023/08/08 13:11:51;;;;;;;0.93;0.40;;;;;;;;;;5051578;28;20552;-66
2023/08/08 13:14:17;;;;;;;2.70;0.50;;;;;;;;;;5049302;28;20427;-64
2023/08/08 13:16:42;;;;;;;1.88;0.68;;;;;;;;;;5051653;28;20016;-65
2023/08/08 13:19:07;;;;;;;1.67;0.70;;;;;;;;;;5051112;28;20469;-64
2023/08/08 13:21:33;;;;;;;2.05;0.70;;;;;;;;;;5051557;28;20017;-65
2023/08/08 13:23:58;;;;;;;2.75;0.85;;;;;;;;;;5051279;28;20440;-64
2023/08/08 13:26:23;;;;;;;2.53;0.73;;;;;;;;;;5050862;28;20025;-65
2023/08/08 13:28:49;;;;;;;4.00;1.00;;;;;;;;;;5048109;28;20053;-65
2023/08/08 13:31:15;;;;;;;3.88;0.70;;;;;;;;;;5051241;28;20017;-66
2023/08/08 13:33:40;;;;;;;3.13;0.85;;;;;;;;;;5051570;28;20020;-64
2023/08/08 13:36:06;;;;;;;5.43;0.95;;;;;;;;;;5051053;28;20056;-64
2023/08/08 13:38:31;;;;;;;5.07;0.98;;;;;;;;;;5051181;28;20079;-64
2023/08/08 13:40:56;;;;;;;3.53;1.00;;;;;;;;;;5051177;28;20096;-65
2023/08/08 13:43:22;;;;;;;1.38;0.63;;;;;;;;;;5050997;28;20024;-65
2023/08/08 13:45:47;;;;;;;2.67;0.73;;;;;;;;;;5051529;28;20021;-66
2023/08/08 13:48:12;;;;;;;2.47;0.70;;;;;;;;;;5051374;28;20025;-67
2023/08/08 13:50:37;;;;;;;2.85;0.70;;;;;;;;;;5051234;28;20041;-66
2023/08/08 13:53:03;;;;;;;3.95;1.13;;;;;;;;;;5050980;28;20032;-67
2023/08/08 13:55:29;;;;;;;5.68;1.20;;;;;;;;;;5051365;28;20099;-66
2023/08/08 13:57:55;;;;;;;5.68;1.20;;;;;;;;;;5050961;28;20029;-65
2023/08/08 14:00:21;;;;;;;3.05;0.82;;;;;;;;;;5050971;28;20021;-65
2023/08/08 14:02:46;;;;;;;1.80;0.70;;;;;;;;;;5047908;28;20480;-64
2023/08/08 14:05:12;;;;;;;5.35;1.02;;;;;;;;;;5060081;28;20044;-65
2023/08/08 14:07:37;;;;;;;6.43;1.30;;;;;;;;;;5054430;28;20376;-65
2023/08/08 14:10:03;;;;;;;3.45;1.00;;;;;;;;;;5052920;28;20044;-65
2023/08/08 14:12:29;;;;;;;3.78;0.90;;;;;;;;;;5046694;28;20380;-64
2023/08/08 14:14:54;;;;;;;3.50;0.80;;;;;;;;;;5055814;28;20092;-64
2023/08/08 14:17:19;;;;;;;4.72;1.10;;;;;;;;;;5055552;28;20358;-64
2023/08/08 14:19:44;;;;;;;12.73;1.20;;;;;;;;;;5055675;28;20017;-64
2023/08/08 14:22:10;;;;;;;5.50;1.00;;;;;;;;;;5055829;28;20078;-64
2023/08/08 14:24:35;;;;;;;5.88;1.10;;;;;;;;;;5055736;28;20075;-64
2023/08/08 14:27:01;;;;;;;4.20;0.90;;;;;;;;;;5055679;28;20104;-65
2023/08/08 14:29:26;;;;;;;6.07;1.15;;;;;;;;;;5055285;28;20432;-64
2023/08/08 14:31:51;;;;;;;5.25;1.02;;;;;;;;;;5055544;28;20032;-66
2023/08/08 14:34:16;;;;;;;5.93;1.10;;;;;;;;;;5055262;28;20429;-66